createdAt,value
2022-07-25T00:00:04.090Z,60.55
2022-07-25T00:02:31.814Z,60.05
2022-07-25T00:05:00.023Z,61.19
2022-07-25T00:07:31.119Z,60.04
2022-07-25T00:09:58.811Z,60.24
2022-07-25T00:12:27.940Z,60.33
2022-07-25T00:14:55.811Z,60.80
2022-07-25T00:17:23.530Z,60.90
2022-07-25T00:19:51.292Z,60.30
2022-07-25T00:22:19.045Z,61.04
2022-07-25T00:24:46.974Z,61.36
2022-07-25T00:27:14.811Z,60.97
2022-07-25T00:29:43.890Z,62.20
2022-07-25T00:32:11.700Z,61.98
2022-07-25T00:34:39.437Z,62.21
2022-07-25T00:37:07.173Z,61.78
2022-07-25T00:39:36.391Z,62.30
2022-07-25T00:42:04.512Z,62.63
2022-07-25T00:44:33.493Z,61.97
2022-07-25T00:47:02.706Z,61.25
2022-07-25T00:49:30.478Z,62.06
2022-07-25T00:51:59.101Z,60.77
2022-07-25T00:54:26.958Z,60.69
2022-07-25T00:56:54.717Z,60.87
2022-07-25T00:59:22.463Z,60.53
2022-07-25T01:01:50.262Z,60.55
2022-07-25T01:04:19.455Z,60.70
2022-07-25T01:06:47.250Z,60.85
2022-07-25T01:09:15.402Z,60.91
2022-07-25T01:11:43.503Z,60.45
2022-07-25T01:14:11.373Z,60.50
2022-07-25T01:16:40.910Z,61.50
2022-07-25T01:19:08.708Z,61.62
2022-07-25T01:21:40.579Z,62.28
2022-07-25T01:24:10.394Z,63.04
2022-07-25T01:26:38.287Z,63.09
2022-07-25T01:29:06.510Z,63.77
2022-07-25T01:31:34.546Z,63.14
2022-07-25T01:34:04.204Z,63.02
2022-07-25T01:36:32.318Z,63.06
2022-07-25T01:39:03.796Z,63.13
2022-07-25T01:41:31.638Z,64.00
2022-07-25T01:43:59.385Z,63.34
2022-07-25T01:46:27.142Z,63.27
2022-07-25T01:48:55.162Z,63.65
2022-07-25T01:51:22.963Z,63.90
2022-07-25T01:53:54.257Z,64.02
2022-07-25T01:56:23.339Z,63.28
2022-07-25T01:58:51.632Z,63.79
2022-07-25T02:01:21.845Z,63.67
2022-07-25T02:03:50.121Z,63.35
2022-07-25T02:06:19.071Z,63.30
2022-07-25T02:08:46.810Z,63.17
2022-07-25T02:11:14.577Z,62.83
2022-07-25T02:13:44.505Z,63.02
2022-07-25T02:16:12.464Z,62.94
2022-07-25T02:18:40.493Z,62.80
2022-07-25T02:21:14.298Z,63.82
2022-07-25T02:23:42.913Z,63.84
2022-07-25T02:26:10.714Z,63.69
2022-07-25T02:28:38.477Z,63.86
2022-07-25T02:31:07.902Z,63.19
2022-07-25T02:33:35.893Z,63.29
2022-07-25T02:36:03.614Z,63.05
2022-07-25T02:38:31.499Z,62.90
2022-07-25T02:40:59.218Z,62.28
2022-07-25T02:43:26.966Z,62.77
2022-07-25T02:45:54.813Z,62.54
2022-07-25T02:48:24.039Z,62.19
2022-07-25T02:50:51.843Z,62.05
2022-07-25T02:53:39.960Z,62.03
2022-07-25T02:56:07.618Z,62.25
2022-07-25T02:58:35.544Z,62.30
2022-07-25T03:01:07.160Z,62.40
2022-07-25T03:03:36.475Z,62.09
2022-07-25T03:06:04.304Z,62.06
2022-07-25T03:08:31.990Z,61.72
2022-07-25T03:10:59.750Z,62.14
2022-07-25T03:13:27.467Z,62.51
2022-07-25T03:15:55.211Z,62.95
2022-07-25T03:18:22.913Z,62.06
2022-07-25T03:20:51.992Z,63.24
2022-07-25T03:23:19.773Z,62.87
2022-07-25T03:25:47.557Z,62.90
2022-07-25T03:28:15.257Z,62.36
2022-07-25T03:30:43.126Z,62.44
2022-07-25T03:33:11.066Z,61.85
2022-07-25T03:35:38.909Z,62.69
2022-07-25T03:38:07.968Z,63.27
2022-07-25T03:40:36.424Z,63.00
2022-07-25T03:43:04.195Z,63.28
2022-07-25T03:45:32.048Z,63.63
2022-07-25T03:47:59.825Z,64.12
2022-07-25T03:50:27.658Z,63.93
2022-07-25T03:52:55.408Z,64.47
2022-07-25T03:55:24.649Z,64.67
2022-07-25T03:57:52.479Z,64.77
2022-07-25T04:00:20.214Z,64.47
2022-07-25T04:02:47.991Z,64.56
2022-07-25T04:05:15.753Z,64.67
2022-07-25T04:07:43.557Z,64.18
2022-07-25T04:10:12.533Z,65.11
2022-07-25T04:12:41.665Z,64.82
2022-07-25T04:15:10.499Z,64.75
2022-07-25T04:17:39.666Z,64.49
2022-07-25T04:20:08.448Z,65.20
2022-07-25T04:22:36.943Z,65.00
2022-07-25T04:25:06.096Z,64.90
2022-07-25T04:27:33.854Z,65.08
2022-07-25T04:30:04.055Z,64.64
2022-07-25T04:32:31.791Z,64.68
2022-07-25T04:34:59.500Z,64.42
2022-07-25T04:37:27.337Z,64.91
2022-07-25T04:39:55.236Z,64.86
2022-07-25T04:42:22.960Z,64.36
2022-07-25T04:44:50.625Z,64.68
2022-07-25T04:47:19.833Z,64.32
2022-07-25T04:49:47.532Z,64.21
2022-07-25T04:52:15.229Z,63.81
2022-07-25T04:54:43.109Z,64.40
2022-07-25T04:57:10.834Z,64.41
2022-07-25T04:59:38.533Z,63.96
2022-07-25T05:02:06.384Z,64.24
2022-07-25T05:04:35.452Z,64.84
2022-07-25T05:07:11.145Z,64.99
2022-07-25T05:09:38.834Z,64.93
2022-07-25T05:12:06.996Z,64.63
2022-07-25T05:14:34.699Z,64.66
2022-07-25T05:17:07.259Z,64.70
2022-07-25T05:19:36.301Z,64.42
2022-07-25T05:22:04.680Z,63.76
2022-07-25T05:24:34.141Z,64.41
2022-07-25T05:27:01.972Z,64.22
2022-07-25T05:29:29.753Z,64.47
2022-07-25T05:31:57.591Z,64.41
2022-07-25T05:34:25.523Z,65.04
2022-07-25T05:36:54.644Z,65.37
2022-07-25T05:39:22.452Z,65.55
2022-07-25T05:41:50.245Z,65.30
2022-07-25T05:44:17.966Z,65.47
2022-07-25T05:46:45.800Z,65.95
2022-07-25T05:49:13.926Z,65.70
2022-07-25T05:51:41.685Z,65.78
2022-07-25T05:54:10.771Z,65.05
2022-07-25T05:56:38.517Z,65.16
2022-07-25T05:59:06.342Z,64.46
2022-07-25T06:01:34.335Z,64.93
2022-07-25T06:04:03.375Z,64.26
2022-07-25T06:06:32.613Z,64.55
2022-07-25T06:09:00.420Z,65.21
2022-07-25T06:11:31.401Z,64.68
2022-07-25T06:13:59.307Z,64.64
2022-07-25T06:16:27.561Z,64.22
2022-07-25T06:18:55.292Z,64.34
2022-07-25T06:21:23.037Z,64.63
2022-07-25T06:23:50.782Z,64.54
2022-07-25T06:26:18.548Z,65.68
2022-07-25T06:28:48.990Z,64.34
2022-07-25T06:31:18.039Z,64.74
2022-07-25T06:33:45.830Z,64.27
2022-07-25T06:36:13.729Z,64.40
2022-07-25T06:38:41.447Z,63.78
2022-07-25T06:41:09.170Z,62.61
2022-07-25T06:43:36.886Z,63.00
2022-07-25T06:46:06.089Z,62.07
2022-07-25T06:48:33.885Z,62.28
2022-07-25T06:51:02.779Z,61.47
2022-07-25T06:53:30.543Z,60.85
2022-07-25T06:55:58.232Z,61.40
2022-07-25T06:58:26.039Z,60.09
2022-07-25T07:00:53.893Z,60.90
2022-07-25T07:03:23.083Z,61.08
2022-07-25T07:05:50.918Z,59.79
2022-07-25T07:08:18.617Z,60.16
2022-07-25T07:10:46.341Z,59.98
2022-07-25T07:13:22.043Z,61.24
2022-07-25T07:15:52.491Z,58.71
2022-07-25T07:18:20.905Z,57.25
2022-07-25T07:20:50.034Z,57.71
2022-07-25T07:23:17.956Z,57.07
2022-07-25T07:25:46.867Z,56.37
2022-07-25T07:28:15.450Z,57.03
2022-07-25T07:33:31.133Z,57.22
2022-07-25T07:36:00.182Z,57.35
2022-07-25T07:38:28.044Z,56.26
2022-07-25T07:40:55.807Z,56.99
2022-07-25T07:43:29.205Z,56.11
2022-07-25T07:46:00.453Z,56.51
2022-07-25T07:48:28.355Z,55.97
2022-07-25T07:50:56.099Z,56.34
2022-07-25T07:53:45.635Z,55.88
2022-07-25T07:56:12.485Z,55.99
2022-07-25T07:58:40.247Z,56.32
2022-07-25T08:01:08.022Z,55.67
2022-07-25T08:03:36.014Z,55.03
2022-07-25T08:06:03.912Z,54.55
2022-07-25T08:08:33.080Z,54.71
2022-07-25T08:11:00.876Z,54.29
2022-07-25T08:13:30.345Z,53.40
2022-07-25T08:15:59.970Z,53.39
2022-07-25T08:18:29.685Z,53.50
2022-07-25T08:20:57.909Z,53.67
2022-07-25T08:23:27.637Z,52.38
2022-07-25T08:25:56.652Z,53.36
2022-07-25T08:28:24.434Z,51.60
2022-07-25T08:30:52.231Z,52.01
2022-07-25T08:33:20.185Z,51.97
2022-07-25T08:35:48.778Z,51.36
2022-07-25T08:38:18.166Z,51.80
2022-07-25T08:40:46.057Z,51.31
2022-07-25T08:43:16.070Z,50.53
2022-07-25T08:45:45.961Z,50.33
2022-07-25T08:48:14.220Z,49.33
2022-07-25T08:50:42.100Z,50.09
2022-07-25T08:53:32.170Z,49.90
2022-07-25T08:55:57.783Z,49.62
2022-07-25T08:58:26.837Z,50.02
2022-07-25T09:00:54.585Z,50.10
2022-07-25T09:03:22.364Z,49.56
2022-07-25T09:05:50.669Z,50.03
2022-07-25T09:08:19.028Z,49.10
2022-07-25T09:10:48.333Z,49.40
2022-07-25T09:13:16.528Z,48.52
2022-07-25T09:15:49.561Z,48.32
2022-07-25T09:18:19.579Z,48.83
2022-07-25T09:20:48.714Z,48.01
2022-07-25T09:23:28.906Z,48.42
2022-07-25T09:26:03.230Z,48.49
2022-07-25T09:28:31.005Z,48.15
2022-07-25T09:31:02.759Z,48.50
2022-07-25T09:33:30.655Z,48.44
2022-07-25T09:35:58.561Z,47.60
2022-07-25T09:38:26.305Z,47.57
2022-07-25T09:40:58.532Z,48.11
2022-07-25T09:43:37.325Z,47.11
2022-07-25T09:46:06.971Z,47.58
2022-07-25T09:48:35.597Z,48.22
2022-07-25T09:51:03.738Z,48.24
2022-07-25T09:53:31.550Z,47.66
2022-07-25T09:55:59.687Z,48.38
2022-07-25T09:58:28.875Z,48.69
2022-07-25T10:01:06.384Z,48.14
2022-07-25T10:03:46.770Z,47.85
2022-07-25T10:06:21.181Z,47.68
2022-07-25T10:08:49.796Z,48.44
2022-07-25T10:11:22.111Z,48.70
2022-07-25T10:13:50.155Z,48.59
2022-07-25T10:16:19.530Z,48.09
2022-07-25T10:18:52.961Z,47.76
2022-07-25T10:21:27.252Z,46.93
2022-07-25T10:24:00.543Z,47.71
2022-07-25T10:26:28.327Z,47.60
2022-07-25T10:28:56.957Z,47.06
2022-07-25T10:31:27.731Z,47.03
2022-07-25T10:33:58.638Z,46.95
2022-07-25T10:36:30.080Z,47.85
2022-07-25T10:38:59.266Z,47.26
2022-07-25T10:41:27.378Z,47.15
2022-07-25T10:43:58.207Z,46.77
2022-07-25T10:46:30.390Z,47.70
2022-07-25T10:49:04.302Z,47.53
2022-07-25T10:51:38.330Z,47.22
2022-07-25T10:54:16.206Z,47.81
2022-07-25T10:56:53.759Z,47.43
2022-07-25T10:59:29.135Z,46.44
2022-07-25T11:01:56.858Z,46.00
2022-07-25T11:04:26.078Z,45.40
2022-07-25T11:06:53.847Z,45.97
2022-07-25T11:09:27.231Z,46.20
2022-07-25T11:11:57.132Z,46.38
2022-07-25T11:14:26.895Z,45.87
2022-07-25T11:16:55.893Z,45.59
2022-07-25T11:19:26.251Z,46.33
2022-07-25T11:21:55.631Z,46.12
2022-07-25T11:24:23.640Z,46.22
2022-07-25T11:26:52.676Z,46.22
2022-07-25T11:29:22.220Z,46.64
2022-07-25T11:31:54.789Z,46.67
2022-07-25T11:34:25.162Z,47.02
2022-07-25T11:36:57.092Z,45.88
2022-07-25T11:39:26.959Z,46.62
2022-07-25T11:42:02.700Z,46.46
2022-07-25T11:44:38.574Z,45.60
2022-07-25T11:47:07.692Z,46.05
2022-07-25T11:49:45.344Z,46.86
2022-07-25T11:52:22.377Z,46.19
2022-07-25T11:54:57.152Z,45.84
2022-07-25T11:57:25.967Z,46.13
2022-07-25T11:59:54.451Z,46.07
2022-07-25T12:02:24.261Z,46.31
2022-07-25T12:04:57.702Z,46.76
2022-07-25T12:07:37.949Z,46.38
2022-07-25T12:10:06.852Z,46.13
2022-07-25T12:12:43.453Z,46.98
2022-07-25T12:15:11.631Z,46.55
2022-07-25T12:17:39.567Z,46.39
2022-07-25T12:20:14.395Z,46.40
2022-07-25T12:22:43.809Z,46.47
2022-07-25T12:25:12.862Z,46.78
2022-07-25T12:27:40.978Z,46.86
2022-07-25T12:30:09.973Z,45.92
2022-07-25T12:32:38.184Z,46.34
2022-07-25T12:35:07.361Z,45.47
2022-07-25T12:37:35.299Z,45.52
2022-07-25T12:40:05.090Z,46.21
2022-07-25T12:42:32.836Z,46.99
2022-07-25T12:45:00.561Z,46.73
2022-07-25T12:47:29.747Z,45.58
2022-07-25T12:49:57.555Z,44.59
2022-07-25T12:52:25.300Z,45.28
2022-07-25T12:54:53.098Z,45.60
2022-07-25T12:57:23.282Z,45.42
2022-07-25T12:59:51.228Z,46.17
2022-07-25T13:02:19.112Z,45.74
2022-07-25T13:04:48.956Z,45.74
2022-07-25T13:07:17.309Z,45.14
2022-07-25T13:09:45.005Z,46.06
2022-07-25T13:12:16.432Z,45.21
2022-07-25T13:14:45.796Z,45.71
2022-07-25T13:17:13.544Z,46.08
2022-07-25T13:19:41.265Z,46.27
2022-07-25T13:22:09.092Z,45.60
2022-07-25T13:24:36.849Z,45.84
2022-07-25T13:27:04.659Z,46.50
2022-07-25T13:29:32.427Z,45.86
2022-07-25T13:32:03.866Z,45.96
2022-07-25T13:34:31.793Z,46.36
2022-07-25T13:36:59.533Z,46.33
2022-07-25T13:39:27.291Z,46.54
2022-07-25T13:41:55.077Z,46.59
2022-07-25T13:44:22.828Z,46.65
2022-07-25T13:46:50.716Z,47.47
2022-07-25T13:49:19.876Z,47.32
2022-07-25T13:51:47.713Z,47.36
2022-07-25T13:54:15.425Z,47.63
2022-07-25T13:56:43.368Z,47.54
2022-07-25T13:59:14.518Z,47.79
2022-07-25T14:01:46.063Z,48.19
2022-07-25T14:04:13.909Z,47.88
2022-07-25T14:06:43.406Z,48.33
2022-07-25T14:09:11.459Z,48.65
2022-07-25T14:11:39.351Z,48.94
2022-07-25T14:14:07.272Z,48.64
2022-07-25T14:16:35.145Z,48.69
2022-07-25T14:19:03.247Z,48.70
2022-07-25T14:21:31.305Z,48.54
2022-07-25T14:24:00.389Z,49.15
2022-07-25T14:26:28.313Z,48.69
2022-07-25T14:28:56.413Z,47.77
2022-07-25T14:31:24.354Z,47.55
2022-07-25T14:33:52.367Z,47.75
2022-07-25T14:36:20.185Z,48.36
2022-07-25T14:38:48.282Z,48.04
2022-07-25T14:41:17.559Z,47.45
2022-07-25T14:43:45.663Z,48.02
2022-07-25T14:46:13.389Z,48.26
2022-07-25T14:48:41.365Z,47.40
2022-07-25T14:51:09.153Z,47.18
2022-07-25T14:53:37.270Z,46.65
2022-07-25T14:56:06.540Z,47.32
2022-07-25T14:58:36.089Z,47.25
2022-07-25T15:01:04.086Z,47.27
2022-07-25T15:03:31.873Z,47.47
2022-07-25T15:05:59.599Z,47.46
2022-07-25T15:08:27.346Z,46.94
2022-07-25T15:10:55.087Z,47.03
2022-07-25T15:13:31.811Z,47.35
2022-07-25T15:16:03.127Z,47.41
2022-07-25T15:18:30.905Z,47.90
2022-07-25T15:20:58.689Z,47.58
2022-07-25T15:23:30.196Z,47.60
2022-07-25T15:26:02.333Z,47.59
2022-07-25T15:28:31.078Z,48.08
2022-07-25T15:30:58.893Z,47.99
2022-07-25T15:33:28.002Z,48.51
2022-07-25T15:35:55.825Z,53.86
2022-07-25T15:38:23.672Z,58.54
2022-07-25T15:40:51.422Z,60.82
2022-07-25T15:43:19.254Z,61.01
2022-07-25T15:45:47.292Z,65.69
2022-07-25T15:48:17.056Z,71.77
2022-07-25T15:50:47.897Z,73.06
2022-07-25T15:53:16.140Z,72.70
2022-07-25T15:55:44.395Z,73.23
2022-07-25T15:58:12.567Z,72.94
2022-07-25T16:00:40.715Z,72.94
2022-07-25T16:03:08.957Z,74.18
2022-07-25T16:05:39.340Z,74.35
2022-07-25T16:08:09.803Z,73.09
2022-07-25T16:10:38.142Z,74.18
2022-07-25T16:13:06.195Z,73.07
2022-07-25T16:15:34.025Z,73.05
2022-07-25T16:18:03.342Z,75.70
2022-07-25T16:20:32.128Z,74.47
2022-07-25T16:23:00.398Z,73.55
2022-07-25T16:25:30.258Z,76.72
2022-07-25T16:27:58.511Z,75.50
2022-07-25T16:30:26.469Z,77.13
2022-07-25T16:32:54.169Z,77.90
2022-07-25T16:35:22.519Z,75.63
2022-07-25T16:37:50.289Z,76.38
2022-07-25T16:40:18.021Z,76.21
2022-07-25T16:42:49.248Z,74.19
2022-07-25T16:45:16.964Z,76.11
2022-07-25T16:47:44.947Z,76.15
2022-07-25T16:50:12.657Z,76.47
2022-07-25T16:52:40.470Z,74.39
2022-07-25T16:55:08.738Z,73.64
2022-07-25T16:57:38.346Z,72.82
2022-07-25T17:00:10.354Z,73.06
2022-07-25T17:02:38.307Z,73.19
2022-07-25T17:05:09.585Z,71.62
2022-07-25T17:07:38.702Z,73.75
2022-07-25T17:10:08.384Z,72.74
2022-07-25T17:12:36.464Z,71.81
2022-07-25T17:15:04.634Z,70.76
2022-07-25T17:17:34.844Z,72.04
2022-07-25T17:20:04.197Z,72.11
2022-07-25T17:22:31.980Z,70.74
2022-07-25T17:24:59.706Z,74.44
2022-07-25T17:27:27.456Z,74.66
2022-07-25T17:29:55.165Z,74.41
2022-07-25T17:32:26.435Z,74.69
2022-07-25T17:34:58.717Z,75.82
2022-07-25T17:37:27.661Z,75.55
2022-07-25T17:39:55.609Z,74.69
2022-07-25T17:42:23.883Z,74.08
2022-07-25T17:44:52.331Z,75.84
2022-07-25T17:47:20.456Z,74.02
2022-07-25T17:49:48.194Z,71.66
2022-07-25T17:52:17.755Z,73.37
2022-07-25T17:54:45.526Z,73.28
2022-07-25T17:57:13.274Z,74.91
2022-07-25T17:59:41.209Z,72.43
2022-07-25T18:02:09.028Z,73.69
2022-07-25T18:04:36.845Z,72.77
2022-07-25T18:07:05.674Z,73.59
2022-07-25T18:09:34.718Z,71.54
2022-07-25T18:12:03.469Z,73.27
2022-07-25T18:14:31.793Z,71.61
2022-07-25T18:16:59.504Z,74.89
2022-07-25T18:19:27.298Z,71.76
2022-07-25T18:21:55.078Z,71.45
2022-07-25T18:24:26.076Z,71.58
2022-07-25T18:26:58.329Z,71.16
2022-07-25T18:29:26.167Z,71.79
2022-07-25T18:31:54.327Z,72.13
2022-07-25T18:34:22.065Z,73.14
2022-07-25T18:36:49.842Z,70.20
2022-07-25T18:39:17.667Z,70.16
2022-07-25T18:41:45.393Z,69.70
2022-07-25T18:44:14.437Z,70.28
2022-07-25T18:46:45.439Z,71.69
2022-07-25T18:49:13.371Z,70.83
2022-07-25T18:51:41.226Z,72.13
2022-07-25T18:54:09.312Z,71.93
2022-07-25T18:56:37.712Z,73.22
2022-07-25T18:59:06.085Z,71.29
2022-07-25T19:01:37.205Z,70.69
2022-07-25T19:04:06.513Z,72.04
2022-07-25T19:06:34.666Z,69.76
2022-07-25T19:09:02.433Z,69.76
2022-07-25T19:11:30.204Z,69.27
2022-07-25T19:13:58.007Z,69.99
2022-07-25T19:16:25.853Z,69.30
2022-07-25T19:18:54.983Z,70.15
2022-07-25T19:21:22.817Z,72.02
2022-07-25T19:23:51.488Z,70.42
2022-07-25T19:26:19.588Z,71.15
2022-07-25T19:28:47.442Z,72.47
2022-07-25T19:31:15.464Z,70.18
2022-07-25T19:33:45.436Z,70.37
2022-07-25T19:36:14.696Z,73.10
2022-07-25T19:38:42.507Z,73.40
2022-07-25T19:41:10.651Z,71.93
2022-07-25T19:43:38.383Z,72.21
2022-07-25T19:46:06.313Z,72.70
2022-07-25T19:48:34.227Z,71.11
2022-07-25T19:51:02.457Z,72.30
2022-07-25T19:53:32.167Z,72.25
2022-07-25T19:55:59.954Z,71.71
2022-07-25T19:58:27.687Z,73.08
2022-07-25T20:00:55.390Z,73.67
2022-07-25T20:03:23.781Z,71.76
2022-07-25T20:05:51.953Z,73.02
2022-07-25T20:08:19.681Z,72.21
2022-07-25T20:10:49.181Z,73.70
2022-07-25T20:13:17.001Z,74.17
2022-07-25T20:15:44.850Z,71.09
2022-07-25T20:18:18.806Z,71.44
2022-07-25T20:20:47.410Z,73.11
2022-07-25T20:23:15.162Z,71.89
2022-07-25T20:25:42.904Z,73.12
2022-07-25T20:28:12.196Z,72.65
2022-07-25T20:30:40.550Z,73.25
2022-07-25T20:33:09.909Z,73.32
2022-07-25T20:35:38.116Z,71.97
2022-07-25T20:38:09.980Z,71.05
2022-07-25T20:40:38.759Z,70.32
2022-07-25T20:43:09.070Z,69.87
2022-07-25T20:45:38.243Z,70.10
2022-07-25T20:48:06.583Z,70.26
2022-07-25T20:50:34.289Z,70.59
2022-07-25T20:53:03.940Z,71.20
2022-07-25T20:55:31.687Z,72.32
2022-07-25T20:58:00.068Z,72.71
2022-07-25T21:00:30.532Z,72.75
2022-07-25T21:02:59.999Z,70.80
2022-07-25T21:05:28.183Z,71.95
2022-07-25T21:07:56.092Z,71.77
2022-07-25T21:10:24.449Z,72.99
2022-07-25T21:12:54.849Z,72.30
2022-07-25T21:15:23.305Z,72.10
2022-07-25T21:17:51.175Z,72.02
2022-07-25T21:20:20.242Z,72.31
2022-07-25T21:22:47.943Z,70.89
2022-07-25T21:25:15.981Z,71.51
2022-07-25T21:27:44.549Z,72.08
2022-07-25T21:30:13.185Z,71.88
2022-07-25T21:32:41.390Z,71.61
2022-07-25T21:35:10.051Z,71.19
2022-07-25T21:37:39.859Z,70.75
2022-07-25T21:40:09.093Z,71.97
2022-07-25T21:42:37.249Z,70.33
2022-07-25T21:45:05.865Z,70.31
2022-07-25T21:47:33.633Z,69.91
2022-07-25T21:50:19.229Z,70.84
2022-07-25T21:52:54.484Z,70.13
2022-07-25T21:55:22.562Z,70.55
2022-07-25T21:57:51.178Z,70.36
2022-07-25T22:00:19.900Z,69.33
2022-07-25T22:02:47.770Z,69.02
2022-07-25T22:05:16.773Z,69.61
2022-07-25T22:07:47.138Z,70.05
2022-07-25T22:10:18.010Z,68.81
2022-07-25T22:12:45.933Z,68.74
2022-07-25T22:15:14.320Z,68.72
2022-07-25T22:17:48.407Z,68.43
2022-07-25T22:20:17.723Z,68.39
2022-07-25T22:22:46.257Z,68.15
2022-07-25T22:25:14.172Z,69.03
2022-07-25T22:27:43.793Z,68.45
2022-07-25T22:30:18.233Z,68.89
2022-07-25T22:32:47.043Z,68.40
2022-07-25T22:35:15.008Z,68.49
2022-07-25T22:37:42.979Z,69.38
2022-07-25T22:40:11.806Z,68.20
2022-07-25T22:42:39.633Z,69.04
2022-07-25T22:45:09.921Z,69.51
2022-07-25T22:47:37.712Z,69.10
2022-07-25T22:50:06.701Z,68.54
2022-07-25T22:52:35.272Z,67.16
2022-07-25T22:55:03.076Z,67.13
2022-07-25T22:57:36.817Z,66.98
2022-07-25T23:00:07.156Z,66.54
2022-07-25T23:02:36.384Z,66.95
2022-07-25T23:05:04.889Z,67.15
2022-07-25T23:07:32.978Z,67.58
2022-07-25T23:10:01.021Z,67.03
2022-07-25T23:12:30.161Z,66.42
2022-07-25T23:14:57.897Z,66.50
2022-07-25T23:17:25.598Z,66.23
2022-07-25T23:19:55.953Z,66.73
2022-07-25T23:22:25.507Z,66.20
2022-07-25T23:24:53.222Z,66.17
2022-07-25T23:27:21.089Z,66.62
2022-07-25T23:29:48.821Z,66.15
2022-07-25T23:32:16.608Z,66.33
2022-07-25T23:34:44.882Z,65.98
2022-07-25T23:37:14.022Z,66.37
2022-07-25T23:39:41.712Z,65.95
2022-07-25T23:42:09.452Z,66.39
2022-07-25T23:44:38.010Z,66.39
2022-07-25T23:47:10.227Z,65.81
2022-07-25T23:49:38.645Z,66.45
2022-07-25T23:52:06.589Z,66.25
2022-07-25T23:54:35.797Z,66.48
2022-07-25T23:57:03.790Z,66.73
2022-07-25T23:59:31.550Z,66.31
